createdAt,value
2022-12-23T00:01:50.883Z,7.70
2022-12-23T00:04:17.753Z,7.70
2022-12-23T00:06:44.626Z,7.70
2022-12-23T00:09:11.502Z,7.80
2022-12-23T00:11:58.284Z,7.70
2022-12-23T00:14:44.009Z,7.80
2022-12-23T00:17:22.309Z,7.80
2022-12-23T00:19:49.669Z,7.80
2022-12-23T00:22:16.449Z,7.80
2022-12-23T00:24:43.406Z,7.80
2022-12-23T00:27:10.224Z,7.80
2022-12-23T00:29:37.003Z,7.80
2022-12-23T00:32:04.029Z,7.80
2022-12-23T00:34:30.943Z,7.80
2022-12-23T00:36:57.751Z,7.90
2022-12-23T00:39:43.478Z,7.90
2022-12-23T00:42:28.880Z,7.80
2022-12-23T00:45:15.341Z,7.90
2022-12-23T00:48:05.331Z,7.90
2022-12-23T00:50:33.888Z,7.90
2022-12-23T00:53:00.790Z,7.90
2022-12-23T00:55:27.724Z,7.90
2022-12-23T00:57:55.407Z,7.90
2022-12-23T01:00:42.386Z,7.90
2022-12-23T01:03:32.495Z,7.90
2022-12-23T01:06:00.813Z,7.90
2022-12-23T01:08:28.231Z,8.00
2022-12-23T01:10:55.254Z,7.90
2022-12-23T01:13:22.276Z,7.90
2022-12-23T01:15:49.058Z,7.90
2022-12-23T01:18:15.867Z,7.90
2022-12-23T01:20:42.660Z,7.80
2022-12-23T01:23:09.428Z,7.80
2022-12-23T01:25:36.197Z,7.80
2022-12-23T01:28:03.020Z,7.90
2022-12-23T01:30:29.863Z,7.90
2022-12-23T01:32:56.696Z,7.80
2022-12-23T01:35:23.663Z,7.90
2022-12-23T01:37:50.408Z,7.90
2022-12-23T01:40:17.368Z,7.90
2022-12-23T01:42:44.438Z,7.90
2022-12-23T01:45:28.363Z,7.90
2022-12-23T01:48:00.158Z,7.90
2022-12-23T01:50:36.293Z,7.90
2022-12-23T01:53:09.117Z,7.90
2022-12-23T01:55:46.955Z,7.90
2022-12-23T01:58:20.747Z,7.90
2022-12-23T02:01:06.511Z,7.90
2022-12-23T02:03:42.866Z,8.00
2022-12-23T02:06:42.596Z,7.90
2022-12-23T02:09:20.440Z,7.90
2022-12-23T02:11:59.015Z,7.90
2022-12-23T02:15:02.508Z,7.90
2022-12-23T02:17:57.387Z,7.90
2022-12-23T02:20:42.878Z,7.90
2022-12-23T02:23:34.067Z,7.90
2022-12-23T02:26:00.753Z,8.00
2022-12-23T02:29:05.253Z,7.90
2022-12-23T02:31:50.777Z,7.90
2022-12-23T02:34:23.127Z,7.90
2022-12-23T02:37:07.389Z,7.90
2022-12-23T02:39:54.823Z,7.90
2022-12-23T02:42:25.991Z,8.00
2022-12-23T02:45:07.518Z,8.00
2022-12-23T02:47:44.847Z,8.00
2022-12-23T02:50:19.313Z,7.90
2022-12-23T02:52:49.462Z,7.90
2022-12-23T02:55:22.224Z,8.00
2022-12-23T02:57:51.782Z,8.00
2022-12-23T03:00:19.204Z,8.00
2022-12-23T03:02:46.502Z,8.00
2022-12-23T03:05:27.396Z,8.00
2022-12-23T03:07:59.319Z,7.90
2022-12-23T03:11:15.451Z,7.90
2022-12-23T03:14:13.000Z,7.90
2022-12-23T03:16:45.815Z,7.90
2022-12-23T03:19:19.845Z,7.90
2022-12-23T03:21:55.452Z,7.90
2022-12-23T03:24:31.198Z,7.90
2022-12-23T03:27:05.566Z,7.90
2022-12-23T03:29:56.595Z,8.00
2022-12-23T03:32:27.941Z,8.00
2022-12-23T03:34:56.846Z,7.90
2022-12-23T03:37:26.282Z,7.90
2022-12-23T03:40:08.446Z,8.00
2022-12-23T03:42:38.456Z,7.90
2022-12-23T03:45:38.045Z,7.80
2022-12-23T03:48:16.801Z,7.90
2022-12-23T03:50:45.299Z,8.00
2022-12-23T03:53:31.068Z,8.00
2022-12-23T03:56:03.349Z,8.00
2022-12-23T03:58:45.589Z,8.00
2022-12-23T04:01:31.427Z,7.90
2022-12-23T04:04:01.668Z,8.00
2022-12-23T04:06:36.088Z,8.00
2022-12-23T04:09:04.723Z,8.00
2022-12-23T04:11:33.260Z,8.00
2022-12-23T04:14:00.164Z,8.00
2022-12-23T04:16:28.258Z,8.10
2022-12-23T04:18:55.537Z,8.00
2022-12-23T04:21:22.323Z,8.00
2022-12-23T04:23:49.170Z,8.00
2022-12-23T04:26:15.972Z,8.10
2022-12-23T04:28:42.920Z,8.00
2022-12-23T04:31:09.777Z,8.00
2022-12-23T04:33:36.643Z,8.00
2022-12-23T04:36:03.833Z,8.00
2022-12-23T04:38:30.673Z,8.00
2022-12-23T04:40:57.504Z,8.10
2022-12-23T04:43:24.400Z,8.10
2022-12-23T04:45:51.884Z,8.00
2022-12-23T04:48:19.202Z,8.00
2022-12-23T04:50:46.037Z,8.00
2022-12-23T04:53:13.156Z,8.10
2022-12-23T04:55:39.920Z,8.10
2022-12-23T04:58:06.783Z,8.10
2022-12-23T05:00:39.195Z,8.00
2022-12-23T05:03:07.014Z,8.00
2022-12-23T05:05:33.969Z,8.10
2022-12-23T05:08:06.639Z,8.10
2022-12-23T05:10:33.540Z,8.10
2022-12-23T05:13:00.321Z,8.00
2022-12-23T05:15:27.183Z,8.00
2022-12-23T05:17:54.014Z,8.10
2022-12-23T05:20:20.826Z,8.00
2022-12-23T05:22:47.596Z,8.00
2022-12-23T05:25:14.486Z,8.10
2022-12-23T05:27:41.243Z,8.10
2022-12-23T05:30:08.811Z,8.10
2022-12-23T05:32:35.817Z,8.10
2022-12-23T05:35:02.687Z,8.10
2022-12-23T05:37:29.737Z,8.00
2022-12-23T05:39:56.593Z,8.10
2022-12-23T05:42:23.481Z,8.10
2022-12-23T05:44:50.319Z,8.10
2022-12-23T05:47:17.187Z,8.10
2022-12-23T05:49:44.177Z,8.00
2022-12-23T05:52:11.085Z,8.10
2022-12-23T05:54:37.882Z,8.10
2022-12-23T05:57:04.800Z,8.20
2022-12-23T05:59:31.979Z,8.10
2022-12-23T06:01:59.043Z,8.10
2022-12-23T06:04:26.117Z,8.20
2022-12-23T06:06:53.021Z,8.20
2022-12-23T06:09:19.910Z,8.20
2022-12-23T06:11:46.871Z,8.20
2022-12-23T06:14:14.162Z,8.20
2022-12-23T06:16:41.196Z,8.30
2022-12-23T06:19:08.276Z,8.20
2022-12-23T06:21:35.169Z,8.30
2022-12-23T06:24:01.992Z,8.20
2022-12-23T06:26:28.890Z,8.30
2022-12-23T06:28:55.790Z,8.30
2022-12-23T06:31:22.665Z,8.20
2022-12-23T06:33:49.427Z,8.20
2022-12-23T06:36:16.225Z,8.20
2022-12-23T06:38:43.070Z,8.30
2022-12-23T06:41:10.403Z,8.30
2022-12-23T06:43:37.495Z,8.20
2022-12-23T06:46:04.444Z,8.30
2022-12-23T06:48:31.358Z,8.30
2022-12-23T06:50:58.130Z,8.30
2022-12-23T06:53:25.174Z,8.30
2022-12-23T06:56:00.070Z,8.30
2022-12-23T06:58:27.149Z,8.20
2022-12-23T07:00:53.922Z,8.20
2022-12-23T07:03:20.941Z,8.20
2022-12-23T07:05:51.592Z,8.30
2022-12-23T07:08:18.728Z,8.20
2022-12-23T07:10:45.529Z,8.20
2022-12-23T07:13:12.538Z,8.30
2022-12-23T07:15:39.846Z,8.20
2022-12-23T07:18:06.880Z,8.20
2022-12-23T07:20:33.633Z,8.20
2022-12-23T07:23:00.914Z,8.20
2022-12-23T07:25:27.857Z,8.20
2022-12-23T07:27:55.457Z,8.20
2022-12-23T07:30:23.295Z,8.20
2022-12-23T07:32:52.935Z,8.20
2022-12-23T07:35:19.932Z,8.20
2022-12-23T07:37:55.496Z,8.20
2022-12-23T07:40:26.353Z,8.20
2022-12-23T07:42:58.325Z,8.20
2022-12-23T07:45:26.639Z,8.20
2022-12-23T07:47:58.411Z,8.20
2022-12-23T07:50:26.409Z,8.20
2022-12-23T07:52:54.188Z,8.20
2022-12-23T07:55:21.358Z,8.20
2022-12-23T07:57:52.296Z,8.20
2022-12-23T08:00:20.060Z,8.20
2022-12-23T08:02:47.866Z,8.20
2022-12-23T08:05:15.434Z,8.20
2022-12-23T08:07:44.931Z,8.20
2022-12-23T08:10:12.276Z,8.20
2022-12-23T08:12:39.036Z,8.20
2022-12-23T08:15:07.064Z,8.10
2022-12-23T08:17:33.878Z,8.10
2022-12-23T08:20:00.670Z,8.10
2022-12-23T08:22:27.422Z,8.20
2022-12-23T08:24:54.282Z,8.20
2022-12-23T08:27:21.363Z,8.10
2022-12-23T08:29:48.243Z,8.20
2022-12-23T08:32:15.240Z,8.20
2022-12-23T08:34:42.083Z,8.20
2022-12-23T08:37:09.382Z,8.20
2022-12-23T08:39:36.285Z,8.10
2022-12-23T08:42:03.743Z,8.20
2022-12-23T08:44:32.491Z,8.20
2022-12-23T08:46:59.344Z,8.20
2022-12-23T08:49:26.268Z,8.20
2022-12-23T08:51:53.069Z,8.20
2022-12-23T08:54:20.560Z,8.20
2022-12-23T08:56:47.467Z,8.30
2022-12-23T08:59:19.189Z,8.30
2022-12-23T09:01:47.247Z,8.30
2022-12-23T09:04:14.325Z,8.30
2022-12-23T09:06:43.405Z,8.30
2022-12-23T09:09:12.838Z,8.30
2022-12-23T09:11:39.807Z,8.30
2022-12-23T09:14:08.568Z,8.30
2022-12-23T09:16:36.112Z,8.30
2022-12-23T09:19:03.563Z,8.30
2022-12-23T09:21:30.643Z,8.30
2022-12-23T09:23:57.418Z,8.20
2022-12-23T09:26:27.017Z,8.30
2022-12-23T09:28:54.863Z,8.30
2022-12-23T09:31:22.818Z,8.30
2022-12-23T09:33:52.203Z,8.30
2022-12-23T09:36:19.729Z,8.30
2022-12-23T09:38:46.790Z,8.30
2022-12-23T09:41:22.385Z,8.20
2022-12-23T09:44:07.716Z,8.30
2022-12-23T09:46:38.395Z,8.30
2022-12-23T09:49:12.780Z,8.30
2022-12-23T09:51:39.909Z,8.30
2022-12-23T09:54:23.388Z,8.30
2022-12-23T09:57:00.723Z,8.30
2022-12-23T09:59:46.206Z,8.30
2022-12-23T10:02:31.666Z,8.30
2022-12-23T10:05:05.080Z,8.40
2022-12-23T10:07:44.145Z,8.40
2022-12-23T10:10:37.553Z,8.40
2022-12-23T10:13:07.427Z,8.40
2022-12-23T10:15:47.828Z,8.40
2022-12-23T10:18:25.117Z,8.50
2022-12-23T10:20:59.587Z,8.50
2022-12-23T10:23:42.574Z,8.50
2022-12-23T10:26:23.758Z,8.50
2022-12-23T10:28:56.044Z,8.50
2022-12-23T10:31:41.170Z,8.50
2022-12-23T10:34:22.285Z,8.50
2022-12-23T10:36:54.753Z,8.50
2022-12-23T10:39:36.348Z,8.50
2022-12-23T10:42:18.541Z,8.50
2022-12-23T10:44:57.060Z,8.50
2022-12-23T10:47:48.113Z,8.50
2022-12-23T10:50:39.090Z,8.50
2022-12-23T10:53:12.861Z,8.50
2022-12-23T10:55:39.929Z,8.50
2022-12-23T10:58:15.877Z,8.50
2022-12-23T11:00:55.775Z,8.50
2022-12-23T11:03:33.608Z,8.50
2022-12-23T11:06:01.323Z,8.60
2022-12-23T11:08:31.042Z,8.50
2022-12-23T11:11:01.007Z,8.60
2022-12-23T11:13:36.772Z,8.60
2022-12-23T11:16:26.092Z,8.60
2022-12-23T11:19:01.088Z,8.60
2022-12-23T11:21:29.603Z,8.60
2022-12-23T11:24:19.868Z,8.70
2022-12-23T11:26:50.113Z,8.70
2022-12-23T11:29:27.476Z,8.70
2022-12-23T11:31:55.731Z,8.70
2022-12-23T11:34:26.892Z,8.70
2022-12-23T11:37:03.582Z,8.70
2022-12-23T11:39:34.929Z,8.70
2022-12-23T11:42:27.258Z,8.70
2022-12-23T11:44:55.497Z,8.70
2022-12-23T11:47:22.236Z,8.70
2022-12-23T11:50:01.292Z,8.70
2022-12-23T11:52:30.829Z,8.70
2022-12-23T11:55:00.183Z,8.80
2022-12-23T11:57:48.663Z,8.80
2022-12-23T12:00:18.571Z,8.70
2022-12-23T12:02:47.117Z,8.80
2022-12-23T12:05:16.952Z,8.80
2022-12-23T12:07:48.113Z,8.70
2022-12-23T12:10:31.453Z,8.80
2022-12-23T12:13:20.567Z,8.80
2022-12-23T12:15:56.781Z,8.80
2022-12-23T12:18:24.215Z,8.80
2022-12-23T12:20:57.008Z,8.80
2022-12-23T12:23:39.199Z,8.80
2022-12-23T12:26:18.825Z,8.80
2022-12-23T12:28:50.038Z,8.80
2022-12-23T12:31:21.628Z,8.80
2022-12-23T12:34:01.879Z,8.80
2022-12-23T12:36:55.667Z,8.80
2022-12-23T12:39:37.541Z,8.80
2022-12-23T12:42:21.133Z,8.80
2022-12-23T12:45:28.168Z,8.80
2022-12-23T12:48:18.708Z,8.80
2022-12-23T12:50:59.623Z,8.80
2022-12-23T12:53:28.164Z,8.80
2022-12-23T12:56:07.125Z,8.80
2022-12-23T12:58:34.096Z,8.80
2022-12-23T19:27:05.358Z,8.20
2022-12-23T19:29:32.334Z,8.20
2022-12-23T19:31:59.110Z,8.20
2022-12-23T19:34:25.942Z,8.30
2022-12-23T19:36:52.716Z,8.30
2022-12-23T19:39:21.847Z,8.40
2022-12-23T19:41:48.633Z,8.50
2022-12-23T19:44:15.592Z,8.40
2022-12-23T19:46:42.495Z,8.50
2022-12-23T19:49:14.067Z,8.60
2022-12-23T19:51:44.542Z,8.60
2022-12-23T19:54:11.356Z,8.60
2022-12-23T19:56:38.204Z,8.70
2022-12-23T19:59:04.968Z,8.70
2022-12-23T20:01:31.942Z,8.70
2022-12-23T20:03:58.761Z,8.70
2022-12-23T20:06:33.068Z,8.70
2022-12-23T20:09:04.078Z,8.70
2022-12-23T20:11:36.534Z,8.70
2022-12-23T20:14:04.440Z,8.70
2022-12-23T20:16:31.677Z,8.60
2022-12-23T20:18:58.694Z,8.70
2022-12-23T20:21:25.771Z,8.80
2022-12-23T20:23:53.118Z,8.60
2022-12-23T20:26:20.633Z,8.70
2022-12-23T20:28:47.483Z,8.80
2022-12-23T20:31:18.941Z,8.70
2022-12-23T20:33:48.318Z,8.80
2022-12-23T20:36:17.821Z,8.70
2022-12-23T20:38:46.005Z,8.70
2022-12-23T20:41:17.992Z,8.80
2022-12-23T20:43:56.963Z,8.80
2022-12-23T20:46:32.139Z,8.80
2022-12-23T20:48:58.955Z,8.80
2022-12-23T20:51:26.091Z,8.80
2022-12-23T20:53:55.135Z,8.80
2022-12-23T20:56:27.287Z,8.90
2022-12-23T20:58:55.138Z,8.90
2022-12-23T21:01:32.087Z,8.90
2022-12-23T21:04:00.726Z,8.90
2022-12-23T21:06:29.212Z,8.90
2022-12-23T21:08:58.747Z,8.90
2022-12-23T21:11:29.327Z,8.90
2022-12-23T21:13:58.763Z,8.90
2022-12-23T21:16:30.820Z,8.90
2022-12-23T21:18:58.272Z,8.90
2022-12-23T21:21:27.562Z,8.90
2022-12-23T21:23:56.420Z,8.90
2022-12-23T21:26:28.468Z,8.90
2022-12-23T21:28:59.437Z,8.90
2022-12-23T21:31:27.022Z,8.90
2022-12-23T21:33:54.644Z,8.90
2022-12-23T21:36:25.095Z,8.90
2022-12-23T21:38:52.456Z,8.90
2022-12-23T21:41:22.064Z,8.90
2022-12-23T21:43:49.761Z,8.90
2022-12-23T21:46:18.751Z,9.00
2022-12-23T21:48:46.598Z,8.90
2022-12-23T21:51:22.454Z,8.90
2022-12-23T21:53:51.547Z,8.90
2022-12-23T21:56:21.344Z,8.90
2022-12-23T21:58:48.186Z,8.90
2022-12-23T22:01:18.130Z,8.80
2022-12-23T22:03:46.692Z,8.80
2022-12-23T22:06:19.612Z,8.80
2022-12-23T22:08:47.706Z,8.80
2022-12-23T22:11:19.213Z,8.70
2022-12-23T22:13:46.598Z,8.70
2022-12-23T22:16:16.390Z,8.70
2022-12-23T22:18:43.493Z,8.80
2022-12-23T22:21:13.537Z,8.80
2022-12-23T22:23:40.904Z,8.80
2022-12-23T22:26:09.955Z,8.80
2022-12-23T22:28:38.172Z,8.80
2022-12-23T22:31:08.234Z,8.80
2022-12-23T22:33:35.174Z,8.80
2022-12-23T22:36:02.053Z,8.80
2022-12-23T22:38:28.919Z,8.80
2022-12-23T22:40:55.732Z,8.80
2022-12-23T22:43:22.601Z,8.90
2022-12-23T22:45:59.138Z,9.00
2022-12-23T22:48:28.735Z,8.90
2022-12-23T22:51:12.916Z,8.90
2022-12-23T22:53:39.892Z,8.90
2022-12-23T22:56:07.611Z,8.90
2022-12-23T22:58:34.698Z,8.90
2022-12-23T23:01:01.720Z,8.90
2022-12-23T23:03:29.092Z,8.90
2022-12-23T23:06:07.076Z,8.90
2022-12-23T23:08:34.987Z,8.90
2022-12-23T23:11:04.741Z,8.80
2022-12-23T23:13:33.811Z,8.80
2022-12-23T23:16:01.742Z,8.80
2022-12-23T23:18:30.077Z,8.80
2022-12-23T23:20:57.005Z,8.80
2022-12-23T23:23:23.923Z,8.80
2022-12-23T23:25:51.063Z,8.80
2022-12-23T23:28:18.252Z,8.80
2022-12-23T23:30:45.024Z,8.80
2022-12-23T23:33:12.227Z,8.70
2022-12-23T23:35:39.498Z,8.80
2022-12-23T23:38:06.419Z,8.80
2022-12-23T23:40:33.184Z,8.80
2022-12-23T23:43:00.417Z,8.80
2022-12-23T23:45:27.683Z,8.80
2022-12-23T23:47:55.843Z,8.80
2022-12-23T23:50:23.335Z,8.80
2022-12-23T23:52:50.181Z,8.80
2022-12-23T23:55:17.080Z,8.90
2022-12-23T23:57:44.019Z,8.90
